createdAt,value
2023-06-02T00:29:03.318Z,45.7
2023-06-02T00:59:03.702Z,48.1
2023-06-02T01:29:04.551Z,51.8
2023-06-02T01:59:04.964Z,54.8
2023-06-02T02:29:05.854Z,56.2
2023-06-02T02:59:06.207Z,57.3
2023-06-02T03:29:06.845Z,56.9
2023-06-02T04:29:07.560Z,56
2023-06-02T04:59:07.915Z,57.9
2023-06-02T05:29:08.226Z,58.9
2023-06-02T05:59:08.600Z,60.4
2023-06-02T06:29:08.954Z,60.5
2023-06-02T06:59:09.292Z,56
2023-06-02T07:29:09.684Z,52.2
2023-06-02T07:59:10.038Z,51.3
2023-06-02T08:29:10.441Z,49.6
2023-06-02T09:29:24.307Z,47.4
2023-06-02T09:59:25.036Z,46.2
2023-06-02T10:29:25.502Z,45.8
2023-06-02T10:59:25.860Z,44.5
2023-06-02T11:29:26.227Z,43.1
2023-06-02T11:59:38.372Z,42.7
2023-06-02T12:33:09.482Z,54.8
2023-06-02T13:03:10.061Z,56
2023-06-02T13:33:12.096Z,53
2023-06-02T14:03:12.827Z,53.3
2023-06-02T14:33:13.511Z,53
2023-06-02T15:33:25.179Z,53
2023-06-02T16:33:36.442Z,53.2
2023-06-02T17:03:36.846Z,53.3
2023-06-02T17:33:37.243Z,53.4
2023-06-02T18:03:38.070Z,53.5
2023-06-02T18:33:38.748Z,53.8
2023-06-02T19:03:39.312Z,54.1
2023-06-02T19:33:39.925Z,54.1
2023-06-02T20:33:40.640Z,53.9
2023-06-02T21:03:41.102Z,53.8
2023-06-02T21:33:41.850Z,54.2
2023-06-02T22:03:42.272Z,54.2
2023-06-02T23:03:53.919Z,54.1
